createdAt,value
2022-08-29T00:02:10.189Z,3.10
2022-08-29T00:04:42.968Z,3.20
2022-08-29T00:07:15.482Z,3.03
2022-08-29T00:09:47.438Z,3.03
2022-08-29T00:12:19.805Z,5.22
2022-08-29T00:14:51.813Z,3.30
2022-08-29T00:17:23.999Z,3.25
2022-08-29T00:19:55.990Z,3.17
2022-08-29T00:22:28.173Z,2.70
2022-08-29T00:25:05.022Z,3.17
2022-08-29T00:27:37.067Z,3.08
2022-08-29T00:30:11.006Z,3.13
2022-08-29T00:32:43.190Z,3.08
2022-08-29T00:35:21.473Z,3.00
2022-08-29T00:37:55.081Z,3.20
2022-08-29T00:40:38.407Z,2.65
2022-08-29T00:43:11.238Z,3.58
2022-08-29T00:46:00.805Z,3.13
2022-08-29T00:48:35.081Z,3.50
2022-08-29T00:51:13.452Z,2.92
2022-08-29T00:53:50.707Z,4.00
2022-08-29T00:56:22.794Z,3.00
2022-08-29T00:59:02.699Z,3.22
2022-08-29T01:01:35.162Z,3.28
2022-08-29T01:04:09.801Z,3.08
2022-08-29T01:06:48.009Z,3.38
2022-08-29T01:09:21.189Z,3.22
2022-08-29T01:12:13.168Z,3.63
2022-08-29T01:14:59.910Z,4.10
2022-08-29T01:17:39.402Z,2.85
2022-08-29T01:20:56.501Z,2.70
2022-08-29T01:23:56.414Z,3.08
2022-08-29T01:26:30.304Z,2.95
2022-08-29T01:29:02.413Z,4.32
2022-08-29T01:31:56.625Z,2.70
2022-08-29T01:34:30.297Z,2.92
2022-08-29T01:37:06.670Z,3.58
2022-08-29T01:39:42.362Z,3.03
2022-08-29T01:42:21.761Z,3.03
2022-08-29T01:44:59.443Z,2.70
2022-08-29T01:47:38.842Z,3.47
2022-08-29T01:50:16.039Z,3.15
2022-08-29T01:52:48.118Z,2.47
2022-08-29T01:55:20.240Z,3.10
2022-08-29T01:57:52.525Z,3.55
2022-08-29T02:00:26.292Z,3.20
2022-08-29T02:03:01.051Z,3.60
2022-08-29T02:05:33.042Z,3.08
2022-08-29T02:08:05.313Z,3.45
2022-08-29T02:10:37.293Z,3.20
2022-08-29T02:13:10.432Z,3.58
2022-08-29T02:15:42.467Z,3.30
2022-08-29T02:18:14.498Z,2.90
2022-08-29T02:20:46.802Z,3.67
2022-08-29T02:23:30.469Z,2.53
2022-08-29T02:26:04.991Z,3.25
2022-08-29T02:28:38.466Z,3.47
2022-08-29T02:31:10.606Z,3.45
2022-08-29T02:33:42.709Z,3.35
2022-08-29T02:36:16.387Z,3.33
2022-08-29T02:38:51.215Z,3.25
2022-08-29T02:41:23.371Z,3.92
2022-08-29T02:43:55.434Z,3.92
2022-08-29T02:46:27.501Z,3.40
2022-08-29T02:49:00.551Z,3.88
2022-08-29T02:51:34.998Z,4.43
2022-08-29T02:54:07.098Z,3.40
2022-08-29T02:56:39.991Z,4.05
2022-08-29T02:59:12.194Z,3.00
2022-08-29T03:01:44.281Z,3.83
2022-08-29T03:04:16.259Z,3.58
2022-08-29T03:06:48.365Z,3.42
2022-08-29T03:09:20.328Z,3.47
2022-08-29T03:11:56.185Z,3.33
2022-08-29T03:14:28.283Z,4.97
2022-08-29T03:17:00.504Z,3.28
2022-08-29T03:19:32.543Z,3.88
2022-08-29T03:22:09.627Z,4.03
2022-08-29T03:24:41.654Z,3.60
2022-08-29T03:27:13.919Z,3.00
2022-08-29T03:29:46.401Z,3.67
2022-08-29T03:32:18.379Z,3.47
2022-08-29T03:34:50.601Z,4.00
2022-08-29T03:37:22.875Z,3.83
2022-08-29T03:39:56.439Z,3.72
2022-08-29T03:42:28.465Z,3.33
2022-08-29T03:45:04.918Z,3.88
2022-08-29T03:47:36.969Z,3.17
2022-08-29T03:50:10.379Z,3.95
2022-08-29T03:52:44.265Z,4.53
2022-08-29T03:55:17.474Z,3.97
2022-08-29T03:57:49.465Z,4.05
2022-08-29T04:00:21.686Z,5.25
2022-08-29T04:02:55.606Z,3.95
2022-08-29T04:05:27.867Z,3.60
2022-08-29T04:08:00.384Z,4.10
2022-08-29T04:10:38.559Z,3.78
2022-08-29T04:13:10.592Z,3.78
2022-08-29T04:15:43.029Z,4.65
2022-08-29T04:18:15.612Z,4.55
2022-08-29T04:21:02.494Z,4.13
2022-08-29T04:23:36.692Z,4.00
2022-08-29T04:26:35.779Z,4.03
2022-08-29T04:29:12.093Z,4.20
2022-08-29T04:31:44.456Z,4.75
2022-08-29T04:34:16.845Z,4.63
2022-08-29T04:36:48.842Z,3.97
2022-08-29T04:39:20.867Z,4.05
2022-08-29T04:41:52.968Z,4.22
2022-08-29T04:44:25.036Z,4.05
2022-08-29T04:46:57.003Z,4.43
2022-08-29T04:49:29.088Z,5.00
2022-08-29T04:52:01.169Z,5.32
2022-08-29T04:54:33.198Z,4.45
2022-08-29T04:57:05.313Z,4.57
2022-08-29T04:59:37.429Z,4.53
2022-08-29T05:02:09.433Z,5.18
2022-08-29T05:04:41.479Z,4.70
2022-08-29T05:07:13.447Z,5.57
2022-08-29T05:09:45.447Z,4.65
2022-08-29T05:12:18.426Z,4.90
2022-08-29T05:14:50.581Z,4.55
2022-08-29T05:17:24.577Z,5.45
2022-08-29T05:19:56.618Z,6.03
2022-08-29T05:22:28.601Z,5.22
2022-08-29T05:25:01.695Z,6.18
2022-08-29T05:27:34.169Z,5.50
2022-08-29T05:30:07.367Z,4.68
2022-08-29T05:32:39.370Z,6.97
2022-08-29T05:35:11.372Z,5.03
2022-08-29T05:37:43.326Z,5.72
2022-08-29T05:40:15.352Z,4.97
2022-08-29T05:42:47.373Z,5.63
2022-08-29T05:45:22.288Z,6.03
2022-08-29T05:47:56.043Z,5.97
2022-08-29T05:50:28.081Z,4.80
2022-08-29T05:53:00.062Z,5.43
2022-08-29T05:55:32.052Z,5.55
2022-08-29T05:58:04.105Z,7.43
2022-08-29T06:00:40.023Z,6.35
2022-08-29T06:03:14.388Z,6.50
2022-08-29T06:05:52.444Z,5.88
2022-08-29T06:08:24.474Z,6.10
2022-08-29T06:10:56.473Z,7.07
2022-08-29T06:13:28.544Z,5.95
2022-08-29T06:16:00.643Z,6.03
2022-08-29T06:18:35.901Z,5.38
2022-08-29T06:21:09.550Z,6.43
2022-08-29T06:23:43.977Z,5.65
2022-08-29T06:26:16.373Z,5.22
2022-08-29T06:28:48.957Z,5.80
2022-08-29T06:31:28.156Z,5.25
2022-08-29T06:34:04.943Z,4.75
2022-08-29T06:36:38.029Z,6.13
2022-08-29T06:39:11.594Z,6.78
2022-08-29T06:41:43.679Z,8.30
2022-08-29T06:44:15.762Z,6.70
2022-08-29T06:46:49.974Z,5.75
2022-08-29T06:49:22.190Z,6.28
2022-08-29T06:51:58.101Z,5.75
2022-08-29T06:54:30.567Z,4.93
2022-08-29T06:57:02.609Z,6.53
2022-08-29T06:59:34.587Z,5.72
2022-08-29T07:02:06.965Z,7.45
2022-08-29T07:04:38.974Z,7.47
2022-08-29T07:07:11.078Z,7.07
2022-08-29T07:09:44.317Z,6.20
2022-08-29T07:12:16.331Z,6.38
2022-08-29T07:14:48.315Z,7.43
2022-08-29T07:17:25.839Z,7.25
2022-08-29T07:19:57.982Z,7.47
2022-08-29T07:22:30.194Z,7.05
2022-08-29T07:25:02.360Z,6.47
2022-08-29T07:27:36.549Z,6.32
2022-08-29T07:30:09.325Z,6.82
2022-08-29T07:32:43.400Z,6.22
2022-08-29T07:35:19.842Z,7.22
2022-08-29T07:37:59.085Z,7.90
2022-08-29T07:40:31.266Z,6.88
2022-08-29T07:43:04.705Z,7.30
2022-08-29T07:45:39.798Z,8.35
2022-08-29T07:48:11.928Z,5.72
2022-08-29T07:50:43.870Z,6.95
2022-08-29T07:53:17.361Z,6.72
2022-08-29T07:55:49.436Z,6.45
2022-08-29T07:58:21.446Z,6.75
2022-08-29T08:00:53.394Z,6.60
2022-08-29T08:03:27.188Z,4.00
2022-08-29T08:05:59.714Z,3.58
2022-08-29T08:08:36.689Z,2.70
2022-08-29T08:11:09.862Z,3.33
2022-08-29T08:13:42.145Z,3.42
2022-08-29T08:16:19.123Z,2.40
2022-08-29T08:18:52.203Z,3.65
2022-08-29T08:21:26.598Z,2.92
2022-08-29T08:23:58.756Z,2.22
2022-08-29T08:26:31.209Z,2.20
2022-08-29T08:29:04.295Z,2.35
2022-08-29T08:31:36.657Z,2.20
2022-08-29T08:34:08.757Z,2.40
2022-08-29T08:36:42.848Z,2.88
2022-08-29T08:39:15.118Z,2.65
2022-08-29T08:41:57.235Z,2.17
2022-08-29T08:44:55.984Z,1.98
2022-08-29T08:47:37.940Z,1.63
2022-08-29T08:50:21.575Z,2.55
2022-08-29T08:53:00.330Z,1.92
2022-08-29T08:55:46.972Z,2.28
2022-08-29T08:58:32.868Z,1.83
2022-08-29T09:01:21.633Z,1.77
2022-08-29T09:04:12.848Z,2.05
2022-08-29T09:07:27.629Z,1.90
2022-08-29T09:10:40.923Z,1.50
2022-08-29T09:13:25.885Z,1.05
2022-08-29T09:16:01.703Z,1.42
2022-08-29T09:18:40.794Z,0.98
2022-08-29T09:21:39.922Z,0.80
2022-08-29T09:24:28.853Z,0.80
2022-08-29T09:27:00.920Z,0.80
2022-08-29T09:29:32.946Z,1.27
2022-08-29T09:32:18.806Z,0.93
2022-08-29T09:35:10.030Z,0.70
2022-08-29T09:37:42.278Z,0.93
2022-08-29T09:40:19.341Z,0.90
2022-08-29T09:43:03.901Z,0.93
2022-08-29T09:45:35.968Z,0.85
2022-08-29T09:48:14.972Z,1.10
2022-08-29T09:50:47.349Z,0.80
2022-08-29T09:53:24.628Z,1.13
2022-08-29T09:56:07.872Z,0.70
2022-08-29T09:58:42.836Z,1.33
2022-08-29T10:01:22.701Z,1.05
2022-08-29T10:04:03.680Z,1.27
2022-08-29T10:06:44.214Z,0.93
2022-08-29T10:09:28.628Z,1.45
2022-08-29T10:12:14.088Z,0.90
2022-08-29T10:14:53.671Z,0.50
2022-08-29T10:17:58.119Z,1.10
2022-08-29T10:20:56.196Z,0.70
2022-08-29T10:24:01.447Z,0.70
2022-08-29T10:27:12.219Z,2.13
2022-08-29T10:30:09.491Z,0.73
2022-08-29T10:32:54.214Z,0.50
2022-08-29T10:36:06.737Z,0.70
2022-08-29T10:39:06.433Z,0.73
2022-08-29T10:41:56.418Z,0.90
2022-08-29T10:44:48.198Z,1.02
2022-08-29T10:47:58.693Z,0.73
2022-08-29T10:50:58.801Z,0.90
2022-08-29T10:54:07.023Z,0.95
2022-08-29T10:56:44.391Z,0.90
2022-08-29T10:59:52.705Z,1.08
2022-08-29T11:03:24.870Z,1.23
2022-08-29T11:06:07.020Z,0.80
2022-08-29T11:08:48.060Z,0.70
2022-08-29T11:11:21.485Z,1.08
2022-08-29T11:14:05.425Z,0.80
2022-08-29T11:16:47.101Z,1.00
2022-08-29T11:19:29.320Z,0.90
2022-08-29T11:22:16.447Z,1.17
2022-08-29T11:25:08.450Z,1.15
2022-08-29T11:28:04.186Z,0.93
2022-08-29T11:31:15.118Z,0.90
2022-08-29T11:34:43.365Z,0.88
2022-08-29T11:37:42.842Z,0.90
2022-08-29T11:41:30.666Z,1.00
2022-08-29T11:44:31.401Z,0.77
2022-08-29T11:47:46.388Z,0.77
2022-08-29T11:50:30.155Z,0.70
2022-08-29T11:53:35.314Z,1.05
2022-08-29T11:56:13.482Z,0.57
2022-08-29T11:58:52.451Z,1.00
2022-08-29T12:01:36.737Z,0.80
2022-08-29T12:04:11.764Z,0.93
2022-08-29T12:07:01.287Z,1.10
2022-08-29T12:10:04.178Z,0.88
2022-08-29T12:12:45.359Z,0.80
2022-08-29T12:15:32.658Z,0.90
2022-08-29T12:18:13.406Z,0.60
2022-08-29T12:20:55.889Z,0.90
2022-08-29T12:23:35.478Z,0.73
2022-08-29T12:26:43.658Z,0.50
2022-08-29T12:29:44.723Z,0.73
2022-08-29T12:33:07.952Z,0.45
2022-08-29T12:36:07.538Z,0.75
2022-08-29T12:39:19.865Z,0.80
2022-08-29T12:42:01.774Z,0.77
2022-08-29T12:44:47.270Z,0.85
2022-08-29T12:47:28.727Z,0.90
2022-08-29T12:50:06.978Z,0.63
2022-08-29T12:52:39.436Z,0.60
2022-08-29T12:55:43.583Z,0.75
2022-08-29T12:59:00.216Z,0.70
2022-08-29T13:01:39.185Z,0.90
2022-08-29T13:04:11.077Z,0.60
2022-08-29T13:07:16.391Z,0.60
2022-08-29T13:09:55.970Z,0.43
2022-08-29T13:12:35.721Z,0.70
2022-08-29T13:15:30.849Z,0.70
2022-08-29T13:18:06.570Z,0.77
2022-08-29T13:20:38.504Z,0.68
2022-08-29T13:23:26.331Z,0.98
2022-08-29T13:26:14.701Z,0.80
2022-08-29T13:28:48.230Z,0.70
2022-08-29T13:31:21.589Z,1.55
2022-08-29T13:33:56.212Z,0.75
2022-08-29T13:36:31.096Z,0.80
2022-08-29T13:39:18.204Z,1.00
2022-08-29T13:42:02.094Z,0.82
2022-08-29T13:44:48.975Z,1.15
2022-08-29T13:47:28.048Z,1.05
2022-08-29T13:50:05.651Z,1.07
2022-08-29T13:52:38.705Z,1.00
2022-08-29T13:55:11.414Z,0.57
2022-08-29T13:57:46.648Z,0.57
2022-08-29T14:00:32.010Z,1.05
2022-08-29T14:03:09.317Z,0.63
2022-08-29T14:05:41.511Z,0.60
2022-08-29T14:08:14.121Z,0.70
2022-08-29T14:10:46.251Z,0.88
2022-08-29T14:13:18.249Z,0.80
2022-08-29T14:15:50.615Z,0.85
2022-08-29T14:18:22.655Z,0.65
2022-08-29T14:20:54.838Z,0.40
2022-08-29T14:23:26.868Z,0.47
2022-08-29T14:25:59.988Z,0.95
2022-08-29T14:28:32.037Z,0.80
2022-08-29T14:31:04.311Z,0.70
2022-08-29T14:33:36.895Z,0.63
2022-08-29T14:36:09.235Z,0.50
2022-08-29T14:38:41.227Z,0.80
2022-08-29T14:41:13.434Z,0.52
2022-08-29T14:43:45.413Z,0.52
2022-08-29T14:46:17.446Z,0.50
2022-08-29T14:48:49.523Z,0.60
2022-08-29T14:51:21.574Z,0.93
2022-08-29T14:53:54.617Z,0.98
2022-08-29T14:56:47.504Z,0.70
2022-08-29T14:59:23.072Z,0.60
2022-08-29T15:01:55.751Z,0.50
2022-08-29T15:04:35.888Z,0.68
2022-08-29T15:07:12.573Z,0.90
2022-08-29T15:09:44.962Z,0.57
2022-08-29T15:12:18.047Z,0.47
2022-08-29T15:14:50.068Z,0.55
2022-08-29T15:17:23.893Z,0.60
2022-08-29T15:22:48.105Z,0.75
2022-08-29T15:25:20.600Z,0.65
2022-08-29T15:27:52.714Z,0.57
2022-08-29T15:30:25.575Z,0.63
2022-08-29T15:32:58.061Z,0.40
2022-08-29T15:35:30.260Z,0.50
2022-08-29T15:38:07.554Z,0.60
2022-08-29T15:40:39.530Z,0.50
2022-08-29T15:43:12.314Z,0.60
2022-08-29T15:45:44.283Z,0.80
2022-08-29T15:48:16.876Z,0.50
2022-08-29T15:50:50.908Z,0.70
2022-08-29T15:53:22.895Z,0.65
2022-08-29T15:55:54.953Z,0.47
2022-08-29T15:58:26.981Z,0.88
2022-08-29T16:00:59.398Z,1.17
2022-08-29T16:03:31.967Z,0.90
2022-08-29T16:06:04.463Z,0.75
2022-08-29T16:08:37.173Z,0.80
2022-08-29T16:11:09.471Z,0.75
2022-08-29T16:13:41.620Z,0.80
2022-08-29T16:16:15.144Z,1.17
2022-08-29T16:18:47.201Z,1.02
2022-08-29T16:21:20.318Z,1.10
2022-08-29T16:23:53.091Z,0.45
2022-08-29T16:26:25.104Z,0.70
2022-08-29T16:28:57.307Z,0.70
2022-08-29T16:31:29.403Z,0.60
2022-08-29T16:34:02.483Z,0.73
2022-08-29T16:36:34.973Z,0.60
2022-08-29T16:39:09.663Z,0.50
2022-08-29T16:41:44.565Z,0.55
2022-08-29T16:44:16.726Z,0.60
2022-08-29T16:46:48.837Z,0.60
2022-08-29T16:49:20.804Z,0.65
2022-08-29T16:51:52.783Z,0.85
2022-08-29T16:54:25.021Z,1.02
2022-08-29T16:56:57.615Z,1.20
2022-08-29T16:59:30.052Z,1.38
2022-08-29T17:02:02.794Z,1.00
2022-08-29T17:04:35.290Z,0.70
2022-08-29T17:07:07.567Z,0.73
2022-08-29T17:09:39.540Z,1.17
2022-08-29T17:12:11.679Z,0.73
2022-08-29T17:14:43.926Z,1.00
2022-08-29T17:17:16.352Z,0.70
2022-08-29T17:19:48.536Z,0.95
2022-08-29T17:22:20.807Z,2.05
2022-08-29T17:24:53.275Z,0.77
2022-08-29T17:27:29.876Z,1.50
2022-08-29T17:30:03.836Z,1.15
2022-08-29T17:32:35.861Z,1.25
2022-08-29T17:35:08.666Z,1.38
2022-08-29T17:37:40.630Z,1.90
2022-08-29T17:40:13.410Z,1.63
2022-08-29T17:42:47.818Z,1.50
2022-08-29T17:45:19.851Z,1.05
2022-08-29T17:47:51.916Z,1.00
2022-08-29T17:50:25.427Z,0.90
2022-08-29T17:52:58.236Z,1.20
2022-08-29T17:55:30.453Z,1.83
2022-08-29T17:58:02.533Z,1.10
2022-08-29T18:00:36.141Z,1.27
2022-08-29T18:03:08.223Z,1.23
2022-08-29T18:05:40.259Z,1.45
2022-08-29T18:08:12.299Z,1.30
2022-08-29T18:10:44.295Z,1.20
2022-08-29T18:13:21.013Z,1.15
2022-08-29T18:15:53.951Z,1.30
2022-08-29T18:18:26.503Z,0.90
2022-08-29T18:20:58.706Z,1.30
2022-08-29T18:23:31.159Z,1.10
2022-08-29T18:26:05.011Z,0.90
2022-08-29T18:28:37.059Z,1.15
2022-08-29T18:31:11.668Z,1.08
2022-08-29T18:34:00.192Z,0.93
2022-08-29T18:36:36.314Z,1.50
2022-08-29T18:39:12.568Z,0.98
2022-08-29T18:41:45.008Z,1.38
2022-08-29T18:44:16.973Z,1.40
2022-08-29T18:46:49.005Z,1.10
2022-08-29T18:49:41.187Z,1.33
2022-08-29T18:52:14.518Z,1.20
2022-08-29T18:54:46.541Z,1.20
2022-08-29T18:57:18.585Z,1.52
2022-08-29T18:59:51.007Z,1.20
2022-08-29T19:02:23.510Z,1.50
2022-08-29T19:04:55.607Z,1.20
2022-08-29T19:07:27.629Z,1.33
2022-08-29T19:09:59.650Z,1.33
2022-08-29T19:12:31.745Z,1.52
2022-08-29T19:15:06.183Z,1.58
2022-08-29T19:17:41.203Z,1.48
2022-08-29T19:20:35.438Z,1.13
2022-08-29T19:23:08.925Z,1.58
2022-08-29T19:25:41.906Z,1.17
2022-08-29T19:28:15.695Z,1.83
2022-08-29T19:30:49.597Z,1.60
2022-08-29T19:33:21.970Z,1.20
2022-08-29T19:35:54.059Z,1.80
2022-08-29T19:38:27.601Z,1.38
2022-08-29T19:41:01.521Z,1.52
2022-08-29T19:43:35.203Z,1.20
2022-08-29T19:46:18.315Z,1.70
2022-08-29T19:48:52.332Z,1.70
2022-08-29T19:51:25.471Z,1.73
2022-08-29T19:53:57.739Z,1.70
2022-08-29T19:56:30.138Z,1.58
2022-08-29T19:59:02.221Z,1.48
2022-08-29T20:01:34.543Z,1.20
2022-08-29T20:04:06.770Z,1.92
2022-08-29T20:06:38.786Z,1.55
2022-08-29T20:09:11.148Z,1.70
2022-08-29T20:11:43.818Z,1.58
2022-08-29T20:14:16.894Z,1.85
2022-08-29T20:16:49.161Z,1.50
2022-08-29T20:19:21.941Z,1.65
2022-08-29T20:21:54.385Z,1.50
2022-08-29T20:24:27.373Z,1.05
2022-08-29T20:27:01.090Z,2.28
2022-08-29T20:29:33.136Z,1.48
2022-08-29T20:32:07.303Z,1.98
2022-08-29T20:34:39.542Z,2.63
2022-08-29T20:37:15.227Z,2.10
2022-08-29T20:39:47.902Z,1.48
2022-08-29T20:42:22.034Z,1.52
2022-08-29T20:44:57.937Z,1.70
2022-08-29T20:47:29.982Z,1.60
2022-08-29T20:50:02.172Z,1.20
2022-08-29T20:52:37.260Z,1.35
2022-08-29T20:55:09.511Z,1.20
2022-08-29T20:57:41.830Z,1.40
2022-08-29T21:00:14.756Z,1.17
2022-08-29T21:03:06.763Z,1.30
2022-08-29T21:05:45.672Z,1.50
2022-08-29T21:08:22.763Z,1.50
2022-08-29T21:10:56.382Z,1.40
2022-08-29T21:13:29.016Z,1.30
2022-08-29T21:16:01.835Z,1.40
2022-08-29T21:18:34.005Z,1.50
2022-08-29T21:21:06.934Z,1.50
2022-08-29T21:23:40.211Z,1.48
2022-08-29T21:26:14.037Z,1.35
2022-08-29T21:28:47.180Z,1.65
2022-08-29T21:31:20.694Z,1.40
2022-08-29T21:33:52.863Z,1.65
2022-08-29T21:36:29.326Z,1.50
2022-08-29T21:39:01.520Z,1.70
2022-08-29T21:41:37.123Z,1.58
2022-08-29T21:44:11.610Z,1.55
2022-08-29T21:46:46.333Z,1.58
2022-08-29T21:49:21.581Z,1.27
2022-08-29T21:51:53.893Z,1.33
2022-08-29T21:54:26.763Z,1.08
2022-08-29T21:56:58.747Z,1.40
2022-08-29T21:59:30.809Z,1.42
2022-08-29T22:02:04.339Z,1.35
2022-08-29T22:04:36.483Z,1.38
2022-08-29T22:07:09.365Z,1.35
2022-08-29T22:09:41.460Z,1.58
2022-08-29T22:12:13.484Z,2.35
2022-08-29T22:15:04.113Z,2.10
2022-08-29T22:17:36.135Z,2.10
2022-08-29T22:20:08.787Z,1.60
2022-08-29T22:22:41.211Z,2.00
2022-08-29T22:25:13.422Z,2.00
2022-08-29T22:27:45.527Z,1.75
2022-08-29T22:30:17.772Z,1.70
2022-08-29T22:32:54.086Z,1.80
2022-08-29T22:35:26.426Z,1.77
2022-08-29T22:37:59.231Z,1.73
2022-08-29T22:40:31.809Z,1.67
2022-08-29T22:43:03.869Z,1.70
2022-08-29T22:45:35.867Z,1.52
2022-08-29T22:48:09.232Z,1.50
2022-08-29T22:50:46.037Z,2.22
2022-08-29T22:53:30.140Z,2.00
2022-08-29T22:56:02.417Z,1.83
2022-08-29T22:58:36.666Z,1.75
2022-08-29T23:01:08.996Z,1.60
2022-08-29T23:03:41.042Z,1.80
2022-08-29T23:06:13.053Z,1.88
2022-08-29T23:08:45.065Z,1.60
2022-08-29T23:11:18.046Z,1.85
2022-08-29T23:13:50.082Z,1.83
2022-08-29T23:16:23.995Z,2.60
2022-08-29T23:18:56.092Z,2.22
2022-08-29T23:21:30.073Z,1.90
2022-08-29T23:24:03.425Z,1.83
2022-08-29T23:26:35.961Z,1.95
2022-08-29T23:29:07.929Z,1.88
2022-08-29T23:31:40.161Z,2.05
2022-08-29T23:34:13.191Z,1.63
2022-08-29T23:36:45.167Z,2.95
2022-08-29T23:39:17.192Z,1.83
2022-08-29T23:41:49.215Z,2.20
2022-08-29T23:44:21.270Z,2.22
2022-08-29T23:46:56.268Z,2.03
2022-08-29T23:49:28.352Z,1.80
2022-08-29T23:52:00.437Z,1.90
2022-08-29T23:54:35.266Z,2.00
2022-08-29T23:57:07.270Z,1.83
